createdAt,value
2023-06-18T00:02:15.898Z,18.50
2023-06-18T00:07:11.684Z,18.50
2023-06-18T00:09:39.384Z,18.50
2023-06-18T00:12:07.393Z,18.50
2023-06-18T00:19:31.326Z,18.50
2023-06-18T00:22:00.448Z,18.50
2023-06-18T00:26:56.397Z,18.50
2023-06-18T00:29:24.469Z,18.40
2023-06-18T00:31:52.250Z,18.40
2023-06-18T00:36:51.894Z,18.20
2023-06-18T00:41:47.662Z,18.10
2023-06-18T00:44:15.472Z,18.10
2023-06-18T00:46:47.573Z,18.00
2023-06-18T00:51:45.772Z,17.90
2023-06-18T00:54:16.213Z,17.90
2023-06-18T00:56:53.320Z,17.90
2023-06-18T00:59:23.935Z,17.80
2023-06-18T01:01:54.500Z,17.80
2023-06-18T01:04:25.032Z,17.80
2023-06-18T01:06:58.803Z,17.70
2023-06-18T01:11:56.369Z,17.70
2023-06-18T01:14:29.837Z,17.70
2023-06-18T01:17:01.828Z,17.50
2023-06-18T01:19:58.563Z,17.50
2023-06-18T01:22:53.248Z,17.50
2023-06-18T01:25:23.944Z,17.50
2023-06-18T01:27:52.171Z,17.50
2023-06-18T01:30:20.444Z,17.50
2023-06-18T01:32:48.712Z,17.40
2023-06-18T01:35:16.950Z,17.40
2023-06-18T01:38:25.450Z,17.30
2023-06-18T01:41:02.926Z,17.30
2023-06-18T01:43:50.238Z,17.30
2023-06-18T01:46:24.446Z,17.30
2023-06-18T01:48:59.200Z,17.50
2023-06-18T01:51:29.120Z,17.20
2023-06-18T01:53:58.841Z,17.10
2023-06-18T01:56:29.614Z,17.10
2023-06-18T01:58:57.733Z,17.10
2023-06-18T02:01:27.781Z,17.20
2023-06-18T02:03:55.756Z,17.20
2023-06-18T02:06:23.441Z,17.20
2023-06-18T02:08:51.146Z,17.20
2023-06-18T02:11:18.961Z,17.20
2023-06-18T02:13:46.563Z,17.20
2023-06-18T02:16:14.481Z,17.20
2023-06-18T02:18:42.190Z,17.20
2023-06-18T02:21:10.149Z,17.30
2023-06-18T02:23:37.661Z,17.30
2023-06-18T02:26:05.288Z,17.30
2023-06-18T02:28:32.910Z,17.30
2023-06-18T02:31:01.230Z,17.30
2023-06-18T02:33:31.416Z,17.30
2023-06-18T02:38:28.543Z,17.30
2023-06-18T02:40:57.212Z,17.30
2023-06-18T02:43:26.540Z,17.30
2023-06-18T02:45:55.526Z,17.20
2023-06-18T02:48:23.259Z,17.20
2023-06-18T02:50:51.232Z,17.10
2023-06-18T02:53:18.898Z,17.10
2023-06-18T02:58:30.455Z,16.90
2023-06-18T03:03:42.719Z,16.90
2023-06-18T03:06:10.352Z,16.80
2023-06-18T03:08:38.683Z,16.80
2023-06-18T03:11:06.764Z,16.80
2023-06-18T03:13:34.467Z,16.80
2023-06-18T03:16:02.112Z,16.80
2023-06-18T03:18:33.984Z,16.80
2023-06-18T03:21:01.776Z,16.80
2023-06-18T03:23:29.460Z,16.80
2023-06-18T03:25:57.228Z,16.80
2023-06-18T03:28:30.610Z,16.80
2023-06-18T03:30:58.980Z,16.90
2023-06-18T03:33:30.698Z,16.90
2023-06-18T03:36:02.030Z,16.90
2023-06-18T03:38:32.985Z,16.90
2023-06-18T03:41:04.512Z,17.00
2023-06-18T03:46:01.270Z,17.00
2023-06-18T03:48:31.124Z,17.00
2023-06-18T03:50:59.144Z,16.90
2023-06-18T03:53:28.689Z,16.90
2023-06-18T03:55:57.001Z,16.90
2023-06-18T04:00:53.237Z,16.50
2023-06-18T04:03:21.493Z,16.70
2023-06-18T04:08:18.031Z,16.60
2023-06-18T04:10:47.249Z,16.60
2023-06-18T04:13:19.190Z,16.60
2023-06-18T04:15:47.672Z,16.60
2023-06-18T04:18:17.032Z,16.60
2023-06-18T04:20:45.864Z,16.60
2023-06-18T04:23:15.117Z,16.70
2023-06-18T04:25:43.912Z,16.70
2023-06-18T04:28:11.868Z,16.70
2023-06-18T04:30:39.496Z,16.70
2023-06-18T04:33:09.401Z,16.70
2023-06-18T04:35:38.105Z,16.70
2023-06-18T04:38:07.930Z,16.80
2023-06-18T04:40:36.062Z,16.80
2023-06-18T04:43:04.496Z,16.80
2023-06-18T04:45:38.817Z,16.90
2023-06-18T04:48:09.252Z,16.90
2023-06-18T04:50:37.330Z,17.00
2023-06-18T04:53:04.978Z,17.00
2023-06-18T04:58:02.393Z,17.10
2023-06-18T05:00:34.508Z,17.10
2023-06-18T05:03:03.265Z,17.20
2023-06-18T05:05:31.747Z,17.10
2023-06-18T05:07:59.975Z,17.20
2023-06-18T05:10:28.411Z,17.20
2023-06-18T05:12:56.365Z,17.20
2023-06-18T05:15:24.748Z,17.20
2023-06-18T05:17:52.404Z,17.10
2023-06-18T05:20:21.921Z,17.20
2023-06-18T05:25:18.659Z,17.20
2023-06-18T05:27:46.815Z,17.20
2023-06-18T05:30:14.536Z,17.30
2023-06-18T05:32:42.200Z,17.30
2023-06-18T05:35:14.074Z,17.30
2023-06-18T05:37:48.422Z,17.30
2023-06-18T05:40:16.142Z,17.30
2023-06-18T05:42:43.778Z,17.20
2023-06-18T05:45:12.763Z,17.30
2023-06-18T05:47:43.040Z,17.30
2023-06-18T05:50:15.170Z,17.40
2023-06-18T05:52:42.982Z,17.40
2023-06-18T05:55:11.362Z,17.40
2023-06-18T05:57:39.185Z,17.50
2023-06-18T06:00:10.422Z,17.50
2023-06-18T06:02:46.308Z,17.50
2023-06-18T06:05:21.796Z,17.60
2023-06-18T06:07:50.981Z,17.70
2023-06-18T06:10:24.204Z,17.70
2023-06-18T06:12:54.602Z,17.90
2023-06-18T06:15:24.088Z,18.00
2023-06-18T06:17:51.839Z,18.10
2023-06-18T06:20:20.208Z,18.20
2023-06-18T06:22:48.764Z,18.30
2023-06-18T06:25:16.893Z,18.40
2023-06-18T06:27:44.492Z,18.50
2023-06-18T06:30:12.526Z,18.50
2023-06-18T06:32:40.323Z,18.60
2023-06-18T06:35:08.118Z,18.50
2023-06-18T06:37:36.537Z,18.50
2023-06-18T06:40:07.433Z,18.50
2023-06-18T06:45:23.996Z,18.60
2023-06-18T06:51:12.723Z,18.60
2023-06-18T06:53:48.844Z,18.60
2023-06-18T06:58:44.979Z,18.70
2023-06-18T07:01:15.594Z,18.70
2023-06-18T07:03:43.243Z,18.80
2023-06-18T07:06:11.169Z,18.80
2023-06-18T07:08:39.020Z,18.80
2023-06-18T07:11:06.827Z,18.90
2023-06-18T07:13:35.002Z,18.70
2023-06-18T07:16:02.885Z,18.90
2023-06-18T07:18:30.457Z,18.90
2023-06-18T07:20:58.217Z,18.90
2023-06-18T07:23:25.879Z,18.90
2023-06-18T07:25:53.403Z,19.00
2023-06-18T07:30:48.965Z,19.10
2023-06-18T07:33:17.656Z,19.10
2023-06-18T07:38:13.040Z,19.10
2023-06-18T07:43:10.607Z,19.00
2023-06-18T07:45:39.586Z,19.00
2023-06-18T07:48:08.949Z,19.00
2023-06-18T07:50:37.183Z,19.10
2023-06-18T07:53:05.107Z,19.20
2023-06-18T07:55:32.707Z,19.40
2023-06-18T07:58:00.545Z,19.60
2023-06-18T08:00:28.400Z,19.80
2023-06-18T08:02:56.026Z,20.00
2023-06-18T08:05:23.743Z,20.30
2023-06-18T08:07:51.411Z,20.50
2023-06-18T08:10:19.007Z,20.60
2023-06-18T08:12:47.003Z,20.80
2023-06-18T08:15:14.849Z,20.90
2023-06-18T08:17:42.553Z,20.80
2023-06-18T08:20:10.835Z,20.80
2023-06-18T08:22:38.933Z,20.70
2023-06-18T08:25:07.971Z,20.70
2023-06-18T08:27:35.954Z,20.70
2023-06-18T08:30:05.319Z,19.30
2023-06-18T08:32:32.976Z,20.70
2023-06-18T08:35:02.373Z,20.80
2023-06-18T08:37:30.335Z,20.80
2023-06-18T08:39:57.825Z,20.70
2023-06-18T08:42:25.506Z,20.50
2023-06-18T08:44:54.574Z,17.30
2023-06-18T08:47:27.543Z,20.50
2023-06-18T08:50:03.304Z,20.60
2023-06-18T08:52:37.767Z,20.70
2023-06-18T08:55:10.920Z,20.70
2023-06-18T08:58:16.773Z,20.90
2023-06-18T09:00:50.130Z,21.00
2023-06-18T09:03:18.679Z,21.20
2023-06-18T09:05:46.861Z,21.40
2023-06-18T09:08:15.674Z,21.60
2023-06-18T09:10:43.744Z,21.70
2023-06-18T09:13:11.602Z,21.90
2023-06-18T09:18:09.918Z,22.20
2023-06-18T09:20:40.831Z,22.20
2023-06-18T09:23:12.485Z,22.10
2023-06-18T09:25:40.514Z,22.20
2023-06-18T09:28:08.967Z,22.30
2023-06-18T09:30:49.599Z,22.40
2023-06-18T09:33:36.108Z,22.60
2023-06-18T09:36:12.092Z,22.60
2023-06-18T09:38:43.630Z,23.00
2023-06-18T09:41:19.191Z,23.20
2023-06-18T09:43:49.343Z,23.20
2023-06-18T09:46:20.858Z,23.40
2023-06-18T09:48:50.196Z,23.50
2023-06-18T09:51:26.219Z,23.50
2023-06-18T09:53:57.307Z,23.50
2023-06-18T09:56:25.316Z,23.50
2023-06-18T09:58:55.238Z,23.50
2023-06-18T10:01:23.042Z,23.50
2023-06-18T10:03:51.050Z,23.50
2023-06-18T10:06:23.811Z,23.50
2023-06-18T10:08:53.874Z,23.60
2023-06-18T10:11:22.688Z,23.60
2023-06-18T10:13:54.573Z,23.80
2023-06-18T10:16:22.885Z,23.80
2023-06-18T10:18:59.005Z,24.00
2023-06-18T10:21:29.949Z,24.00
2023-06-18T10:24:23.347Z,24.00
2023-06-18T10:29:19.656Z,24.40
2023-06-18T10:31:47.556Z,24.50
2023-06-18T10:34:16.609Z,24.70
2023-06-18T10:36:46.051Z,24.70
2023-06-18T10:39:24.363Z,24.70
2023-06-18T10:41:53.813Z,24.70
2023-06-18T10:44:54.569Z,24.60
2023-06-18T10:47:25.110Z,24.70
2023-06-18T10:50:02.073Z,24.70
2023-06-18T10:52:32.280Z,25.00
2023-06-18T10:55:13.632Z,25.10
2023-06-18T10:57:47.012Z,25.30
2023-06-18T11:00:31.631Z,25.40
2023-06-18T11:03:00.519Z,25.40
2023-06-18T11:05:34.398Z,25.30
2023-06-18T11:08:03.110Z,25.30
2023-06-18T11:10:35.353Z,25.30
2023-06-18T11:13:07.825Z,25.20
2023-06-18T11:15:36.564Z,25.30
2023-06-18T11:18:04.764Z,25.30
2023-06-18T11:20:35.223Z,25.40
2023-06-18T11:23:05.209Z,25.50
2023-06-18T11:25:32.979Z,25.50
2023-06-18T11:28:03.288Z,25.50
2023-06-18T11:30:33.562Z,25.50
2023-06-18T11:33:01.874Z,25.50
2023-06-18T11:35:31.858Z,25.60
2023-06-18T11:37:59.781Z,25.60
2023-06-18T11:42:55.656Z,25.60
2023-06-18T11:45:23.782Z,25.50
2023-06-18T11:47:53.407Z,25.50
2023-06-18T11:50:26.562Z,25.20
2023-06-18T11:52:54.740Z,25.20
2023-06-18T11:55:22.715Z,25.20
2023-06-18T11:57:51.165Z,25.10
2023-06-18T12:02:46.859Z,25.20
2023-06-18T12:05:14.514Z,26.50
2023-06-18T12:07:43.982Z,25.30
2023-06-18T12:10:12.965Z,25.40
2023-06-18T12:13:06.256Z,25.50
2023-06-18T12:16:11.721Z,25.40
2023-06-18T12:18:43.372Z,25.40
2023-06-18T12:21:11.292Z,25.30
2023-06-18T12:23:39.821Z,25.20
2023-06-18T12:26:07.675Z,25.30
2023-06-18T12:28:35.889Z,25.40
2023-06-18T12:31:08.283Z,25.40
2023-06-18T12:33:42.258Z,25.60
2023-06-18T12:36:10.064Z,25.70
2023-06-18T12:38:42.371Z,25.70
2023-06-18T12:41:10.251Z,25.90
2023-06-18T12:43:42.359Z,25.90
2023-06-18T12:46:10.322Z,26.00
2023-06-18T12:48:40.612Z,26.00
2023-06-18T12:51:09.197Z,26.10
2023-06-18T12:53:36.945Z,26.10
2023-06-18T12:56:19.382Z,26.10
2023-06-18T12:58:47.861Z,26.00
2023-06-18T13:01:16.755Z,25.80
2023-06-18T13:03:46.436Z,25.70
2023-06-18T13:06:14.621Z,25.70
2023-06-18T13:08:47.529Z,25.80
2023-06-18T13:11:17.047Z,25.90
2023-06-18T13:13:45.523Z,26.00
2023-06-18T13:16:13.384Z,26.10
2023-06-18T13:18:41.012Z,26.00
2023-06-18T13:21:08.532Z,26.10
2023-06-18T13:23:36.101Z,26.30
2023-06-18T13:26:03.943Z,26.40
2023-06-18T13:28:31.614Z,26.70
2023-06-18T13:31:00.090Z,26.80
2023-06-18T13:35:56.220Z,26.50
2023-06-18T13:38:23.891Z,26.40
2023-06-18T13:43:20.879Z,26.60
2023-06-18T13:45:50.546Z,26.70
2023-06-18T13:50:47.112Z,26.90
2023-06-18T13:53:15.319Z,27.00
2023-06-18T13:55:43.749Z,27.00
2023-06-18T13:58:11.876Z,26.90
2023-06-18T14:00:40.791Z,26.90
2023-06-18T14:05:37.400Z,26.60
2023-06-18T14:08:06.043Z,26.40
2023-06-18T14:13:07.038Z,26.00
2023-06-18T14:15:34.888Z,25.80
2023-06-18T14:18:02.966Z,25.70
2023-06-18T14:22:59.375Z,25.70
2023-06-18T14:25:27.636Z,25.60
2023-06-18T14:27:56.592Z,25.60
2023-06-18T14:30:29.033Z,25.40
2023-06-18T14:33:00.629Z,25.30
2023-06-18T14:35:29.637Z,25.30
2023-06-18T14:37:57.441Z,25.30
2023-06-18T14:40:25.830Z,25.30
2023-06-18T14:42:56.228Z,25.40
2023-06-18T14:45:27.359Z,25.60
2023-06-18T14:47:55.770Z,25.70
2023-06-18T14:53:00.802Z,25.80
2023-06-18T14:55:34.435Z,25.90
2023-06-18T15:00:30.648Z,25.90
2023-06-18T15:07:54.743Z,25.50
2023-06-18T15:10:22.321Z,25.50
2023-06-18T15:12:49.861Z,25.10
2023-06-18T15:15:18.203Z,24.90
2023-06-18T15:17:45.950Z,24.80
2023-06-18T15:20:15.184Z,24.70
2023-06-18T15:27:39.225Z,24.30
2023-06-18T15:30:09.204Z,24.20
2023-06-18T15:32:37.388Z,24.00
2023-06-18T15:35:05.612Z,23.80
2023-06-18T15:37:33.352Z,23.70
2023-06-18T15:40:01.063Z,23.60
2023-06-18T15:42:28.854Z,23.20
2023-06-18T15:44:56.645Z,23.00
2023-06-18T15:47:24.262Z,23.00
2023-06-18T15:49:51.705Z,22.90
2023-06-18T15:52:19.500Z,22.80
2023-06-18T15:54:47.455Z,22.50
2023-06-18T15:59:37.978Z,22.20
2023-06-18T16:02:05.907Z,22.10
2023-06-18T16:04:33.522Z,21.90
2023-06-18T16:07:01.175Z,21.90
2023-06-18T16:11:56.723Z,21.70
2023-06-18T16:14:24.416Z,21.70
2023-06-18T16:16:52.259Z,21.60
2023-06-18T16:21:47.758Z,21.40
2023-06-18T16:24:17.874Z,21.30
2023-06-18T16:26:45.846Z,21.20
2023-06-18T16:29:13.639Z,21.10
2023-06-18T16:31:41.160Z,21.00
2023-06-18T16:34:08.740Z,20.90
2023-06-18T16:36:36.889Z,20.70
2023-06-18T16:39:04.682Z,20.60
2023-06-18T16:41:33.699Z,20.50
2023-06-18T16:44:01.445Z,20.40
2023-06-18T16:46:29.145Z,20.30
2023-06-18T16:48:57.030Z,20.30
2023-06-18T16:53:52.864Z,20.00
2023-06-18T16:56:21.386Z,20.00
2023-06-18T16:58:49.026Z,19.90
2023-06-18T17:01:18.136Z,19.90
2023-06-18T17:06:16.372Z,19.70
2023-06-18T17:08:43.990Z,19.80
2023-06-18T17:11:11.790Z,19.80
2023-06-18T17:18:35.317Z,19.70
2023-06-18T17:25:59.068Z,19.70
2023-06-18T17:28:26.744Z,19.70
2023-06-18T17:33:22.752Z,19.60
2023-06-18T17:35:50.394Z,19.60
2023-06-18T17:38:17.974Z,19.60
2023-06-18T17:40:45.731Z,19.60
2023-06-18T17:45:41.565Z,19.50
2023-06-18T17:48:09.239Z,19.50
2023-06-18T17:50:36.968Z,19.50
2023-06-18T17:55:35.020Z,19.40
2023-06-18T18:00:30.713Z,19.30
2023-06-18T18:02:58.431Z,19.20
2023-06-18T18:05:29.198Z,19.20
2023-06-18T18:10:25.540Z,19.10
2023-06-18T18:17:49.601Z,19.20
2023-06-18T18:22:45.372Z,19.10
2023-06-18T18:27:41.138Z,19.00
2023-06-18T18:30:09.184Z,19.00
2023-06-18T18:32:36.860Z,19.10
2023-06-18T18:35:05.681Z,19.10
2023-06-18T18:40:21.568Z,18.90
2023-06-18T18:45:25.277Z,18.80
2023-06-18T18:50:24.277Z,18.60
2023-06-18T18:52:52.339Z,18.50
2023-06-18T18:57:49.885Z,18.10
2023-06-18T19:00:19.000Z,18.00
2023-06-18T19:02:47.004Z,17.90
2023-06-18T19:06:25.137Z,17.80
2023-06-18T19:08:52.908Z,17.70
2023-06-18T19:11:20.540Z,17.50
2023-06-18T19:13:48.193Z,17.40
2023-06-18T19:16:16.067Z,17.30
2023-06-18T19:18:44.252Z,17.20
2023-06-18T19:21:12.090Z,17.10
2023-06-18T19:23:39.697Z,17.00
2023-06-18T19:28:35.528Z,17.00
2023-06-18T19:31:03.157Z,17.00
2023-06-18T19:33:31.720Z,17.00
2023-06-18T19:38:28.182Z,17.00
2023-06-18T19:43:24.552Z,17.00
2023-06-18T19:45:53.072Z,16.90
2023-06-18T19:48:23.460Z,16.90
2023-06-18T19:50:51.967Z,16.90
2023-06-18T19:53:21.103Z,16.90
2023-06-18T19:58:17.166Z,16.90
2023-06-18T20:00:47.690Z,16.90
2023-06-18T20:03:15.504Z,16.90
2023-06-18T20:05:43.133Z,16.90
2023-06-18T20:08:11.131Z,16.90
2023-06-18T20:10:39.091Z,16.90
2023-06-18T20:13:07.974Z,16.90
2023-06-18T20:15:37.381Z,16.80
2023-06-18T20:18:05.083Z,16.80
2023-06-18T20:23:00.832Z,16.80
2023-06-18T20:27:57.240Z,16.80
2023-06-18T20:30:25.297Z,16.70
2023-06-18T20:32:54.220Z,16.80
2023-06-18T20:36:28.143Z,16.70
2023-06-18T20:38:58.428Z,16.70
2023-06-18T20:49:32.390Z,16.70
2023-06-18T20:52:00.840Z,16.70
2023-06-18T20:54:28.586Z,16.70
2023-06-18T20:56:56.531Z,16.70
2023-06-18T20:59:24.323Z,16.70
2023-06-18T21:01:53.931Z,16.60
2023-06-18T21:04:22.050Z,16.60
2023-06-18T21:14:27.256Z,16.50
2023-06-18T21:17:06.654Z,16.50
2023-06-18T21:25:27.242Z,16.40
2023-06-18T21:49:31.146Z,16.30
2023-06-18T21:51:59.498Z,16.20
2023-06-18T21:54:28.724Z,16.20
2023-06-18T21:56:57.945Z,16.20
2023-06-18T21:59:27.046Z,16.20
2023-06-18T22:10:37.841Z,16.30
2023-06-18T22:13:05.713Z,16.20
2023-06-18T22:15:33.411Z,16.20
2023-06-18T22:18:01.685Z,16.20
2023-06-18T22:20:48.619Z,16.20
2023-06-18T22:30:40.397Z,16.20
2023-06-18T22:33:08.198Z,16.20
2023-06-18T22:35:37.561Z,16.20
2023-06-18T22:38:05.475Z,16.20
2023-06-18T22:43:00.792Z,16.20
2023-06-18T22:50:24.969Z,16.10
2023-06-18T22:52:53.084Z,16.10
2023-06-18T22:55:20.821Z,16.10
2023-06-18T22:57:48.834Z,16.10
2023-06-18T23:00:18.163Z,16.10
2023-06-18T23:02:46.860Z,16.00
2023-06-18T23:05:15.451Z,16.00
2023-06-18T23:10:11.017Z,15.90
2023-06-18T23:12:38.746Z,15.90
2023-06-18T23:15:07.271Z,15.90
2023-06-18T23:17:35.115Z,15.80
2023-06-18T23:20:04.740Z,15.80
2023-06-18T23:22:32.413Z,15.80
2023-06-18T23:25:00.193Z,15.80
2023-06-18T23:29:56.033Z,15.70
2023-06-18T23:32:23.613Z,15.70
2023-06-18T23:37:19.073Z,15.70
2023-06-18T23:39:49.183Z,15.70
2023-06-18T23:44:44.871Z,15.70
2023-06-18T23:47:12.722Z,15.70
2023-06-18T23:49:40.742Z,15.70
2023-06-18T23:52:10.463Z,15.60
2023-06-18T23:54:39.158Z,15.60
2023-06-18T23:57:07.547Z,15.60
2023-06-18T23:59:35.172Z,15.60
